sensor_id;sensor_type;location;lat;lon;timestamp;pressure;altitude;pressure_sealevel;temperature;humidity
12468;BME280;57850;52.922;6.256;2022-11-15T00:00:45;101152.38;;;11.60;100.00
12468;BME280;57850;52.922;6.256;2022-11-15T00:03:13;101158.63;;;11.81;100.00
12468;BME280;57850;52.922;6.256;2022-11-15T00:05:41;101147.53;;;11.50;100.00
12468;BME280;57850;52.922;6.256;2022-11-15T00:08:08;101121.38;;;11.00;100.00
12468;BME280;57850;52.922;6.256;2022-11-15T00:10:35;101123.19;;;10.72;100.00
12468;BME280;57850;52.922;6.256;2022-11-15T00:13:04;101093.94;;;10.62;100.00
12468;BME280;57850;52.922;6.256;2022-11-15T00:15:31;101111.00;;;10.99;100.00
12468;BME280;57850;52.922;6.256;2022-11-15T00:18:00;101127.47;;;11.25;100.00
12468;BME280;57850;52.922;6.256;2022-11-15T00:20:26;101112.69;;;11.00;100.00
12468;BME280;57850;52.922;6.256;2022-11-15T00:22:57;101108.88;;;11.10;100.00
12468;BME280;57850;52.922;6.256;2022-11-15T00:25:23;101102.97;;;11.05;100.00
12468;BME280;57850;52.922;6.256;2022-11-15T00:27:50;101085.91;;;10.68;100.00
12468;BME280;57850;52.922;6.256;2022-11-15T00:30:21;101070.91;;;10.49;100.00
12468;BME280;57850;52.922;6.256;2022-11-15T00:32:47;101079.47;;;10.79;100.00
12468;BME280;57850;52.922;6.256;2022-11-15T00:35:14;101065.50;;;10.55;100.00
12468;BME280;57850;52.922;6.256;2022-11-15T00:37:41;101070.34;;;10.92;100.00
12468;BME280;57850;52.922;6.256;2022-11-15T00:40:10;101058.84;;;10.45;100.00
12468;BME280;57850;52.922;6.256;2022-11-15T00:42:38;101039.56;;;10.23;100.00
12468;BME280;57850;52.922;6.256;2022-11-15T00:45:05;101044.72;;;10.52;100.00
12468;BME280;57850;52.922;6.256;2022-11-15T00:47:32;101030.59;;;10.31;100.00
12468;BME280;57850;52.922;6.256;2022-11-15T00:49:58;101022.22;;;10.21;100.00
12468;BME280;57850;52.922;6.256;2022-11-15T00:52:25;101031.75;;;10.23;100.00
12468;BME280;57850;52.922;6.256;2022-11-15T00:54:52;101053.69;;;10.43;100.00
12468;BME280;57850;52.922;6.256;2022-11-15T00:57:20;101045.13;;;10.40;100.00
12468;BME280;57850;52.922;6.256;2022-11-15T00:59:46;101040.44;;;10.23;100.00
12468;BME280;57850;52.922;6.256;2022-11-15T01:02:13;101042.25;;;10.47;100.00
12468;BME280;57850;52.922;6.256;2022-11-15T01:04:39;101040.81;;;10.65;100.00
12468;BME280;57850;52.922;6.256;2022-11-15T01:07:06;101038.28;;;10.36;100.00
12468;BME280;57850;52.922;6.256;2022-11-15T01:09:33;101032.97;;;10.39;100.00
12468;BME280;57850;52.922;6.256;2022-11-15T01:11:59;101046.44;;;10.77;100.00
12468;BME280;57850;52.922;6.256;2022-11-15T01:14:27;101047.56;;;10.70;100.00
12468;BME280;57850;52.922;6.256;2022-11-15T01:16:54;101018.13;;;10.14;100.00
12468;BME280;57850;52.922;6.256;2022-11-15T01:19:21;101008.47;;;9.89;100.00
12468;BME280;57850;52.922;6.256;2022-11-15T01:21:48;100994.72;;;10.11;100.00
12468;BME280;57850;52.922;6.256;2022-11-15T01:24:15;100996.41;;;10.12;100.00
12468;BME280;57850;52.922;6.256;2022-11-15T01:26:41;101005.97;;;10.13;100.00
12468;BME280;57850;52.922;6.256;2022-11-15T01:29:08;101001.06;;;10.03;100.00
12468;BME280;57850;52.922;6.256;2022-11-15T01:31:36;100988.47;;;9.89;100.00
12468;BME280;57850;52.922;6.256;2022-11-15T01:34:03;100984.16;;;10.16;100.00
12468;BME280;57850;52.922;6.256;2022-11-15T01:36:29;100977.47;;;10.07;100.00
12468;BME280;57850;52.922;6.256;2022-11-15T01:38:57;100973.78;;;10.13;100.00
12468;BME280;57850;52.922;6.256;2022-11-15T01:41:27;100985.28;;;10.35;100.00
12468;BME280;57850;52.922;6.256;2022-11-15T01:43:56;100984.75;;;10.50;100.00
12468;BME280;57850;52.922;6.256;2022-11-15T01:46:27;100991.50;;;10.03;100.00
12468;BME280;57850;52.922;6.256;2022-11-15T01:49:00;100959.03;;;10.13;100.00
12468;BME280;57850;52.922;6.256;2022-11-15T01:51:30;100955.56;;;10.13;100.00
12468;BME280;57850;52.922;6.256;2022-11-15T01:54:01;100973.75;;;10.42;100.00
12468;BME280;57850;52.922;6.256;2022-11-15T01:56:31;100967.81;;;10.09;100.00
12468;BME280;57850;52.922;6.256;2022-11-15T01:59:03;100973.31;;;10.28;100.00
12468;BME280;57850;52.922;6.256;2022-11-15T02:01:30;100965.06;;;10.42;100.00
12468;BME280;57850;52.922;6.256;2022-11-15T02:04:03;100970.72;;;10.54;100.00
12468;BME280;57850;52.922;6.256;2022-11-15T02:06:30;100978.19;;;10.65;100.00
12468;BME280;57850;52.922;6.256;2022-11-15T02:08:57;100976.94;;;10.50;100.00
12468;BME280;57850;52.922;6.256;2022-11-15T02:11:25;100967.25;;;10.79;100.00
12468;BME280;57850;52.922;6.256;2022-11-15T02:13:52;100986.00;;;10.90;100.00
12468;BME280;57850;52.922;6.256;2022-11-15T02:16:27;100984.22;;;10.90;100.00
12468;BME280;57850;52.922;6.256;2022-11-15T02:19:10;100964.72;;;10.77;100.00
12468;BME280;57850;52.922;6.256;2022-11-15T02:21:44;100972.91;;;10.66;100.00
12468;BME280;57850;52.922;6.256;2022-11-15T02:24:39;100961.44;;;10.95;100.00
12468;BME280;57850;52.922;6.256;2022-11-15T02:27:47;100975.34;;;10.96;100.00
12468;BME280;57850;52.922;6.256;2022-11-15T02:30:24;100963.78;;;10.78;100.00
12468;BME280;57850;52.922;6.256;2022-11-15T02:32:55;100958.34;;;10.59;100.00
12468;BME280;57850;52.922;6.256;2022-11-15T02:35:30;100941.94;;;10.56;100.00
12468;BME280;57850;52.922;6.256;2022-11-15T02:38:07;100931.19;;;10.40;100.00
12468;BME280;57850;52.922;6.256;2022-11-15T02:40:44;100954.19;;;11.03;100.00
12468;BME280;57850;52.922;6.256;2022-11-15T02:43:17;100953.94;;;10.61;100.00
12468;BME280;57850;52.922;6.256;2022-11-15T02:46:08;100937.22;;;10.67;100.00
12468;BME280;57850;52.922;6.256;2022-11-15T02:48:37;100941.63;;;10.90;100.00
12468;BME280;57850;52.922;6.256;2022-11-15T02:51:05;100927.31;;;10.77;100.00
12468;BME280;57850;52.922;6.256;2022-11-15T02:53:32;100922.28;;;10.95;100.00
12468;BME280;57850;52.922;6.256;2022-11-15T02:55:59;100911.28;;;10.62;100.00
12468;BME280;57850;52.922;6.256;2022-11-15T02:58:50;100892.91;;;10.65;100.00
12468;BME280;57850;52.922;6.256;2022-11-15T03:01:33;100888.19;;;10.52;100.00
12468;BME280;57850;52.922;6.256;2022-11-15T03:04:12;100885.41;;;10.56;100.00
12468;BME280;57850;52.922;6.256;2022-11-15T03:06:47;100857.34;;;10.40;100.00
12468;BME280;57850;52.922;6.256;2022-11-15T03:09:23;100862.84;;;10.55;100.00
12468;BME280;57850;52.922;6.256;2022-11-15T03:11:57;100846.00;;;10.64;100.00
12468;BME280;57850;52.922;6.256;2022-11-15T03:14:29;100847.09;;;10.82;100.00
12468;BME280;57850;52.922;6.256;2022-11-15T03:17:03;100846.41;;;10.77;100.00
12468;BME280;57850;52.922;6.256;2022-11-15T03:19:35;100839.75;;;10.91;100.00
12468;BME280;57850;52.922;6.256;2022-11-15T03:22:06;100833.03;;;10.86;100.00
12468;BME280;57850;52.922;6.256;2022-11-15T03:24:36;100832.94;;;10.87;100.00
12468;BME280;57850;52.922;6.256;2022-11-15T03:27:05;100826.81;;;10.88;100.00
12468;BME280;57850;52.922;6.256;2022-11-15T03:29:36;100825.72;;;10.94;100.00
12468;BME280;57850;52.922;6.256;2022-11-15T03:32:09;100797.25;;;10.88;100.00
12468;BME280;57850;52.922;6.256;2022-11-15T03:34:40;100788.31;;;10.71;100.00
12468;BME280;57850;52.922;6.256;2022-11-15T03:37:08;100769.72;;;10.81;100.00
12468;BME280;57850;52.922;6.256;2022-11-15T03:39:36;100771.88;;;10.91;100.00
12468;BME280;57850;52.922;6.256;2022-11-15T03:42:08;100747.75;;;11.08;100.00
12468;BME280;57850;52.922;6.256;2022-11-15T03:44:45;100735.47;;;10.88;100.00
12468;BME280;57850;52.922;6.256;2022-11-15T03:47:17;100727.69;;;11.30;100.00
12468;BME280;57850;52.922;6.256;2022-11-15T03:49:50;100706.63;;;11.13;100.00
12468;BME280;57850;52.922;6.256;2022-11-15T03:52:18;100729.72;;;11.44;100.00
12468;BME280;57850;52.922;6.256;2022-11-15T03:54:49;100723.53;;;11.24;100.00
12468;BME280;57850;52.922;6.256;2022-11-15T03:57:16;100716.28;;;11.11;100.00
12468;BME280;57850;52.922;6.256;2022-11-15T03:59:43;100700.63;;;11.31;100.00
12468;BME280;57850;52.922;6.256;2022-11-15T04:02:09;100677.91;;;10.91;100.00
12468;BME280;57850;52.922;6.256;2022-11-15T04:04:37;100673.47;;;11.35;100.00
12468;BME280;57850;52.922;6.256;2022-11-15T04:07:04;100703.59;;;11.44;100.00
12468;BME280;57850;52.922;6.256;2022-11-15T04:09:30;100696.53;;;11.25;100.00
12468;BME280;57850;52.922;6.256;2022-11-15T04:11:57;100669.91;;;10.96;100.00
12468;BME280;57850;52.922;6.256;2022-11-15T04:14:23;100655.75;;;11.21;100.00
12468;BME280;57850;52.922;6.256;2022-11-15T04:16:50;100646.34;;;10.97;100.00
12468;BME280;57850;52.922;6.256;2022-11-15T04:19:16;100643.09;;;11.12;100.00
12468;BME280;57850;52.922;6.256;2022-11-15T04:22:02;100604.25;;;11.25;100.00
12468;BME280;57850;52.922;6.256;2022-11-15T04:24:46;100609.16;;;11.33;100.00
12468;BME280;57850;52.922;6.256;2022-11-15T04:27:12;100613.41;;;11.15;100.00
12468;BME280;57850;52.922;6.256;2022-11-15T04:29:39;100561.75;;;11.21;100.00
12468;BME280;57850;52.922;6.256;2022-11-15T04:32:06;100545.13;;;11.04;100.00
12468;BME280;57850;52.922;6.256;2022-11-15T04:34:33;100496.78;;;10.95;100.00
12468;BME280;57850;52.922;6.256;2022-11-15T04:37:01;100449.97;;;11.29;100.00
12468;BME280;57850;52.922;6.256;2022-11-15T04:39:42;100435.91;;;11.13;100.00
12468;BME280;57850;52.922;6.256;2022-11-15T04:42:09;100426.81;;;11.41;100.00
12468;BME280;57850;52.922;6.256;2022-11-15T04:44:36;100419.50;;;11.30;100.00
12468;BME280;57850;52.922;6.256;2022-11-15T04:47:02;100391.38;;;11.16;100.00
12468;BME280;57850;52.922;6.256;2022-11-15T04:49:29;100357.94;;;11.43;100.00
12468;BME280;57850;52.922;6.256;2022-11-15T04:51:56;100356.50;;;11.55;100.00
12468;BME280;57850;52.922;6.256;2022-11-15T04:54:24;100371.53;;;11.31;100.00
12468;BME280;57850;52.922;6.256;2022-11-15T04:56:51;100347.34;;;11.46;100.00
12468;BME280;57850;52.922;6.256;2022-11-15T04:59:17;100338.66;;;11.63;100.00
12468;BME280;57850;52.922;6.256;2022-11-15T05:01:44;100358.19;;;11.56;100.00
12468;BME280;57850;52.922;6.256;2022-11-15T05:04:11;100336.34;;;11.75;100.00
12468;BME280;57850;52.922;6.256;2022-11-15T05:06:47;100329.50;;;11.54;100.00
12468;BME280;57850;52.922;6.256;2022-11-15T05:09:14;100329.69;;;11.87;100.00
12468;BME280;57850;52.922;6.256;2022-11-15T05:11:42;100347.28;;;11.84;100.00
12468;BME280;57850;52.922;6.256;2022-11-15T05:14:09;100328.56;;;11.91;100.00
12468;BME280;57850;52.922;6.256;2022-11-15T05:16:35;100331.91;;;11.77;100.00
12468;BME280;57850;52.922;6.256;2022-11-15T05:19:02;100313.84;;;11.90;100.00
12468;BME280;57850;52.922;6.256;2022-11-15T05:21:29;100303.91;;;12.14;100.00
12468;BME280;57850;52.922;6.256;2022-11-15T05:23:56;100311.66;;;11.98;100.00
12468;BME280;57850;52.922;6.256;2022-11-15T05:26:23;100283.53;;;11.86;100.00
12468;BME280;57850;52.922;6.256;2022-11-15T05:28:53;100268.47;;;11.74;100.00
12468;BME280;57850;52.922;6.256;2022-11-15T05:31:21;100227.69;;;12.04;100.00
12468;BME280;57850;52.922;6.256;2022-11-15T05:33:49;100238.41;;;12.15;100.00
12468;BME280;57850;52.922;6.256;2022-11-15T05:36:20;100214.13;;;12.13;100.00
12468;BME280;57850;52.922;6.256;2022-11-15T05:38:48;100243.78;;;12.29;100.00
12468;BME280;57850;52.922;6.256;2022-11-15T05:41:17;100268.69;;;12.37;100.00
12468;BME280;57850;52.922;6.256;2022-11-15T05:43:46;100253.94;;;12.51;100.00
12468;BME280;57850;52.922;6.256;2022-11-15T05:46:16;100258.75;;;12.43;100.00
12468;BME280;57850;52.922;6.256;2022-11-15T05:48:45;100251.69;;;12.28;100.00
12468;BME280;57850;52.922;6.256;2022-11-15T05:51:15;100244.53;;;12.31;100.00
12468;BME280;57850;52.922;6.256;2022-11-15T05:53:44;100222.53;;;12.35;100.00
12468;BME280;57850;52.922;6.256;2022-11-15T05:56:11;100203.72;;;12.45;100.00
12468;BME280;57850;52.922;6.256;2022-11-15T05:58:38;100178.47;;;12.44;100.00
12468;BME280;57850;52.922;6.256;2022-11-15T06:01:05;100204.00;;;12.56;100.00
12468;BME280;57850;52.922;6.256;2022-11-15T06:03:33;100213.09;;;12.49;100.00
12468;BME280;57850;52.922;6.256;2022-11-15T06:05:59;100206.84;;;12.51;100.00
12468;BME280;57850;52.922;6.256;2022-11-15T06:08:26;100206.00;;;12.66;100.00
12468;BME280;57850;52.922;6.256;2022-11-15T06:10:53;100211.69;;;12.59;100.00
12468;BME280;57850;52.922;6.256;2022-11-15T06:13:19;100204.16;;;12.68;100.00
12468;BME280;57850;52.922;6.256;2022-11-15T06:15:46;100201.72;;;12.50;100.00
12468;BME280;57850;52.922;6.256;2022-11-15T06:18:13;100183.41;;;12.65;100.00
12468;BME280;57850;52.922;6.256;2022-11-15T06:20:40;100190.75;;;12.74;100.00
12468;BME280;57850;52.922;6.256;2022-11-15T06:23:07;100194.69;;;12.81;100.00
12468;BME280;57850;52.922;6.256;2022-11-15T06:25:33;100218.94;;;12.69;100.00
12468;BME280;57850;52.922;6.256;2022-11-15T06:28:00;100212.25;;;12.79;100.00
12468;BME280;57850;52.922;6.256;2022-11-15T06:30:27;100205.59;;;12.58;100.00
12468;BME280;57850;52.922;6.256;2022-11-15T06:32:59;100193.25;;;12.76;100.00
12468;BME280;57850;52.922;6.256;2022-11-15T06:35:26;100205.31;;;12.78;100.00
12468;BME280;57850;52.922;6.256;2022-11-15T06:37:54;100183.38;;;12.97;100.00
12468;BME280;57850;52.922;6.256;2022-11-15T06:40:22;100209.56;;;12.81;100.00
12468;BME280;57850;52.922;6.256;2022-11-15T06:42:49;100229.41;;;12.85;100.00
12468;BME280;57850;52.922;6.256;2022-11-15T06:45:15;100233.44;;;13.06;100.00
12468;BME280;57850;52.922;6.256;2022-11-15T06:47:45;100257.00;;;13.06;100.00
12468;BME280;57850;52.922;6.256;2022-11-15T06:50:12;100264.72;;;12.94;100.00
12468;BME280;57850;52.922;6.256;2022-11-15T06:52:39;100259.91;;;13.02;100.00
12468;BME280;57850;52.922;6.256;2022-11-15T06:55:08;100275.84;;;12.97;100.00
12468;BME280;57850;52.922;6.256;2022-11-15T06:57:35;100270.81;;;13.10;100.00
12468;BME280;57850;52.922;6.256;2022-11-15T07:00:02;100278.84;;;13.22;100.00
12468;BME280;57850;52.922;6.256;2022-11-15T07:02:29;100283.72;;;13.28;100.00
12468;BME280;57850;52.922;6.256;2022-11-15T07:04:56;100283.66;;;13.14;100.00
12468;BME280;57850;52.922;6.256;2022-11-15T07:07:23;100287.50;;;12.92;100.00
12468;BME280;57850;52.922;6.256;2022-11-15T07:09:49;100262.72;;;13.14;100.00
12468;BME280;57850;52.922;6.256;2022-11-15T07:12:17;100268.81;;;13.15;100.00
12468;BME280;57850;52.922;6.256;2022-11-15T07:14:44;100277.75;;;13.26;100.00
12468;BME280;57850;52.922;6.256;2022-11-15T07:17:10;100299.88;;;13.36;100.00
12468;BME280;57850;52.922;6.256;2022-11-15T07:19:37;100314.09;;;13.17;100.00
12468;BME280;57850;52.922;6.256;2022-11-15T07:22:03;100293.69;;;13.37;100.00
12468;BME280;57850;52.922;6.256;2022-11-15T07:24:30;100307.41;;;13.43;100.00
12468;BME280;57850;52.922;6.256;2022-11-15T07:26:56;100327.59;;;13.56;100.00
12468;BME280;57850;52.922;6.256;2022-11-15T07:29:24;100339.09;;;13.38;100.00
12468;BME280;57850;52.922;6.256;2022-11-15T07:31:51;100317.03;;;13.42;100.00
12468;BME280;57850;52.922;6.256;2022-11-15T07:34:17;100309.84;;;13.46;100.00
12468;BME280;57850;52.922;6.256;2022-11-15T07:36:44;100334.09;;;13.49;100.00
12468;BME280;57850;52.922;6.256;2022-11-15T07:39:10;100332.34;;;13.34;100.00
12468;BME280;57850;52.922;6.256;2022-11-15T07:41:37;100332.50;;;13.47;100.00
12468;BME280;57850;52.922;6.256;2022-11-15T07:44:05;100328.88;;;13.49;100.00
12468;BME280;57850;52.922;6.256;2022-11-15T07:46:32;100326.66;;;13.41;100.00
12468;BME280;57850;52.922;6.256;2022-11-15T07:48:59;100325.22;;;13.52;100.00
12468;BME280;57850;52.922;6.256;2022-11-15T07:51:26;100343.91;;;13.61;100.00
12468;BME280;57850;52.922;6.256;2022-11-15T07:53:52;100348.03;;;13.65;100.00
12468;BME280;57850;52.922;6.256;2022-11-15T07:56:19;100338.16;;;13.55;100.00
12468;BME280;57850;52.922;6.256;2022-11-15T07:58:46;100335.63;;;13.53;100.00
12468;BME280;57850;52.922;6.256;2022-11-15T08:01:13;100342.38;;;13.57;100.00
12468;BME280;57850;52.922;6.256;2022-11-15T08:03:41;100350.03;;;13.76;100.00
12468;BME280;57850;52.922;6.256;2022-11-15T08:06:07;100336.38;;;13.55;100.00
12468;BME280;57850;52.922;6.256;2022-11-15T08:08:34;100341.16;;;13.63;100.00
12468;BME280;57850;52.922;6.256;2022-11-15T08:11:00;100344.91;;;13.59;100.00
12468;BME280;57850;52.922;6.256;2022-11-15T08:13:27;100348.38;;;13.59;100.00
12468;BME280;57850;52.922;6.256;2022-11-15T08:15:57;100337.09;;;13.73;100.00
12468;BME280;57850;52.922;6.256;2022-11-15T08:18:24;100359.50;;;13.78;100.00
12468;BME280;57850;52.922;6.256;2022-11-15T08:20:52;100328.47;;;13.71;100.00
12468;BME280;57850;52.922;6.256;2022-11-15T08:23:19;100338.84;;;13.88;100.00
12468;BME280;57850;52.922;6.256;2022-11-15T08:25:45;100342.47;;;13.85;100.00
12468;BME280;57850;52.922;6.256;2022-11-15T08:28:12;100341.09;;;13.94;100.00
12468;BME280;57850;52.922;6.256;2022-11-15T08:30:40;100345.59;;;13.92;100.00
12468;BME280;57850;52.922;6.256;2022-11-15T08:33:10;100359.47;;;13.94;100.00
12468;BME280;57850;52.922;6.256;2022-11-15T08:35:38;100354.34;;;14.07;100.00
12468;BME280;57850;52.922;6.256;2022-11-15T08:38:06;100370.72;;;13.96;100.00
12468;BME280;57850;52.922;6.256;2022-11-15T08:40:32;100378.00;;;14.21;100.00
12468;BME280;57850;52.922;6.256;2022-11-15T08:42:59;100419.88;;;14.38;100.00
12468;BME280;57850;52.922;6.256;2022-11-15T08:45:27;100433.31;;;14.18;100.00
12468;BME280;57850;52.922;6.256;2022-11-15T08:47:54;100423.00;;;14.29;100.00
12468;BME280;57850;52.922;6.256;2022-11-15T08:50:23;100427.13;;;14.34;100.00
12468;BME280;57850;52.922;6.256;2022-11-15T08:52:49;100419.06;;;14.22;100.00
12468;BME280;57850;52.922;6.256;2022-11-15T08:55:17;100406.00;;;14.06;100.00
12468;BME280;57850;52.922;6.256;2022-11-15T08:57:44;100396.56;;;14.18;100.00
12468;BME280;57850;52.922;6.256;2022-11-15T09:00:12;100394.78;;;14.18;100.00
12468;BME280;57850;52.922;6.256;2022-11-15T09:02:39;100390.25;;;14.36;100.00
12468;BME280;57850;52.922;6.256;2022-11-15T09:05:07;100382.41;;;14.20;100.00
12468;BME280;57850;52.922;6.256;2022-11-15T09:07:34;100390.66;;;14.28;100.00
12468;BME280;57850;52.922;6.256;2022-11-15T09:10:00;100389.16;;;14.40;100.00
12468;BME280;57850;52.922;6.256;2022-11-15T09:12:28;100398.03;;;14.08;100.00
12468;BME280;57850;52.922;6.256;2022-11-15T09:14:56;100375.25;;;14.08;100.00
12468;BME280;57850;52.922;6.256;2022-11-15T09:17:23;100376.44;;;14.32;100.00
12468;BME280;57850;52.922;6.256;2022-11-15T09:19:49;100391.13;;;14.36;100.00
12468;BME280;57850;52.922;6.256;2022-11-15T09:22:16;100385.78;;;14.22;100.00
12468;BME280;57850;52.922;6.256;2022-11-15T09:24:43;100394.72;;;14.50;100.00
12468;BME280;57850;52.922;6.256;2022-11-15T09:27:09;100422.16;;;14.44;100.00
12468;BME280;57850;52.922;6.256;2022-11-15T09:29:37;100427.06;;;14.50;100.00
12468;BME280;57850;52.922;6.256;2022-11-15T09:32:04;100397.53;;;14.46;100.00
12468;BME280;57850;52.922;6.256;2022-11-15T09:34:30;100397.28;;;14.35;100.00
12468;BME280;57850;52.922;6.256;2022-11-15T09:36:57;100399.13;;;14.49;100.00
12468;BME280;57850;52.922;6.256;2022-11-15T09:39:24;100412.84;;;14.38;100.00
12468;BME280;57850;52.922;6.256;2022-11-15T09:41:59;100420.13;;;14.49;100.00
12468;BME280;57850;52.922;6.256;2022-11-15T09:44:41;100409.34;;;14.82;100.00
12468;BME280;57850;52.922;6.256;2022-11-15T09:50:09;100432.75;;;14.42;100.00
12468;BME280;57850;52.922;6.256;2022-11-15T09:52:37;100419.75;;;14.69;100.00
12468;BME280;57850;52.922;6.256;2022-11-15T09:55:09;100429.66;;;14.94;100.00
12468;BME280;57850;52.922;6.256;2022-11-15T09:57:39;100439.66;;;14.73;100.00
12468;BME280;57850;52.922;6.256;2022-11-15T10:00:15;100440.38;;;14.61;100.00
12468;BME280;57850;52.922;6.256;2022-11-15T10:02:54;100431.66;;;14.61;100.00
12468;BME280;57850;52.922;6.256;2022-11-15T10:05:25;100426.53;;;14.59;100.00
12468;BME280;57850;52.922;6.256;2022-11-15T10:07:58;100406.38;;;14.60;100.00
12468;BME280;57850;52.922;6.256;2022-11-15T10:10:32;100410.69;;;14.75;100.00
12468;BME280;57850;52.922;6.256;2022-11-15T10:13:02;100402.13;;;14.85;100.00
12468;BME280;57850;52.922;6.256;2022-11-15T10:15:31;100413.50;;;14.72;100.00
12468;BME280;57850;52.922;6.256;2022-11-15T10:18:18;100416.50;;;14.66;100.00
12468;BME280;57850;52.922;6.256;2022-11-15T10:20:54;100396.38;;;14.51;100.00
12468;BME280;57850;52.922;6.256;2022-11-15T10:23:23;100395.69;;;14.91;100.00
12468;BME280;57850;52.922;6.256;2022-11-15T10:25:51;100390.41;;;14.63;100.00
12468;BME280;57850;52.922;6.256;2022-11-15T10:28:22;100373.03;;;14.46;100.00
12468;BME280;57850;52.922;6.256;2022-11-15T10:30:55;100398.03;;;14.95;100.00
12468;BME280;57850;52.922;6.256;2022-11-15T10:33:29;100377.09;;;14.80;100.00
12468;BME280;57850;52.922;6.256;2022-11-15T10:36:30;100386.00;;;15.06;100.00
12468;BME280;57850;52.922;6.256;2022-11-15T10:38:58;100382.06;;;14.70;100.00
12468;BME280;57850;52.922;6.256;2022-11-15T10:41:34;100396.78;;;14.73;100.00
12468;BME280;57850;52.922;6.256;2022-11-15T10:44:09;100394.28;;;14.71;100.00
12468;BME280;57850;52.922;6.256;2022-11-15T10:46:40;100391.91;;;14.95;100.00
12468;BME280;57850;52.922;6.256;2022-11-15T10:49:13;100413.22;;;14.76;100.00
12468;BME280;57850;52.922;6.256;2022-11-15T10:51:44;100400.38;;;15.00;100.00
12468;BME280;57850;52.922;6.256;2022-11-15T10:54:12;100431.72;;;15.03;100.00
12468;BME280;57850;52.922;6.256;2022-11-15T10:56:42;100438.47;;;15.21;100.00
12468;BME280;57850;52.922;6.256;2022-11-15T10:59:23;100434.16;;;15.06;100.00
12468;BME280;57850;52.922;6.256;2022-11-15T11:01:52;100453.41;;;15.07;100.00
12468;BME280;57850;52.922;6.256;2022-11-15T11:04:19;100470.06;;;14.77;100.00
12468;BME280;57850;52.922;6.256;2022-11-15T11:06:46;100463.44;;;15.00;100.00
12468;BME280;57850;52.922;6.256;2022-11-15T11:09:23;100481.41;;;14.78;100.00
12468;BME280;57850;52.922;6.256;2022-11-15T11:11:53;100510.38;;;15.06;100.00
12468;BME280;57850;52.922;6.256;2022-11-15T11:14:21;100531.88;;;15.13;100.00
12468;BME280;57850;52.922;6.256;2022-11-15T11:16:50;100533.16;;;15.20;100.00
12468;BME280;57850;52.922;6.256;2022-11-15T11:19:43;100546.13;;;14.79;100.00
12468;BME280;57850;52.922;6.256;2022-11-15T11:22:19;100567.50;;;15.02;100.00
12468;BME280;57850;52.922;6.256;2022-11-15T11:24:55;100580.03;;;15.41;100.00
12468;BME280;57850;52.922;6.256;2022-11-15T11:27:38;100585.47;;;15.38;100.00
12468;BME280;57850;52.922;6.256;2022-11-15T11:30:10;100598.88;;;15.64;100.00
12468;BME280;57850;52.922;6.256;2022-11-15T11:32:55;100637.41;;;15.93;100.00
12468;BME280;57850;52.922;6.256;2022-11-15T11:35:29;100659.56;;;15.61;100.00
12468;BME280;57850;52.922;6.256;2022-11-15T11:38:06;100653.50;;;15.15;100.00
12468;BME280;57850;52.922;6.256;2022-11-15T11:40:41;100659.03;;;15.10;100.00
12468;BME280;57850;52.922;6.256;2022-11-15T11:43:17;100658.69;;;15.00;100.00
12468;BME280;57850;52.922;6.256;2022-11-15T11:45:57;100679.00;;;15.28;100.00
12468;BME280;57850;52.922;6.256;2022-11-15T11:48:39;100675.97;;;15.20;100.00
12468;BME280;57850;52.922;6.256;2022-11-15T11:51:13;100670.13;;;15.15;100.00
12468;BME280;57850;52.922;6.256;2022-11-15T11:53:47;100687.63;;;15.30;100.00
12468;BME280;57850;52.922;6.256;2022-11-15T11:56:23;100676.88;;;15.19;100.00
12468;BME280;57850;52.922;6.256;2022-11-15T11:58:53;100688.19;;;15.35;100.00
12468;BME280;57850;52.922;6.256;2022-11-15T12:01:25;100723.41;;;16.21;100.00
12468;BME280;57850;52.922;6.256;2022-11-15T12:03:57;100766.53;;;17.03;100.00
12468;BME280;57850;52.922;6.256;2022-11-15T12:06:31;100793.81;;;17.57;100.00
12468;BME280;57850;52.922;6.256;2022-11-15T12:09:03;100814.13;;;17.28;100.00
12468;BME280;57850;52.922;6.256;2022-11-15T12:11:38;100799.53;;;17.63;100.00
12468;BME280;57850;52.922;6.256;2022-11-15T12:14:16;100774.69;;;16.43;100.00
12468;BME280;57850;52.922;6.256;2022-11-15T12:16:45;100745.88;;;15.98;100.00
12468;BME280;57850;52.922;6.256;2022-11-15T12:19:12;100731.66;;;15.86;100.00
12468;BME280;57850;52.922;6.256;2022-11-15T12:21:44;100724.94;;;15.67;100.00
12468;BME280;57850;52.922;6.256;2022-11-15T12:24:16;100725.97;;;15.94;100.00
12468;BME280;57850;52.922;6.256;2022-11-15T12:26:49;100773.34;;;16.93;100.00
12468;BME280;57850;52.922;6.256;2022-11-15T12:29:22;100755.38;;;16.15;100.00
12468;BME280;57850;52.922;6.256;2022-11-15T12:31:53;100755.53;;;15.83;100.00
12468;BME280;57850;52.922;6.256;2022-11-15T12:34:38;100747.63;;;15.83;100.00
12468;BME280;57850;52.922;6.256;2022-11-15T12:43:38;100732.41;;;15.88;100.00
12468;BME280;57850;52.922;6.256;2022-11-15T12:46:05;100741.94;;;16.33;100.00
12468;BME280;57850;52.922;6.256;2022-11-15T12:48:58;100765.28;;;16.25;100.00
12468;BME280;57850;52.922;6.256;2022-11-15T12:55:00;100746.66;;;16.00;100.00
12468;BME280;57850;52.922;6.256;2022-11-15T12:57:33;100741.00;;;16.06;100.00
12468;BME280;57850;52.922;6.256;2022-11-15T13:03:24;100730.44;;;15.78;100.00
12468;BME280;57850;52.922;6.256;2022-11-15T13:05:57;100726.56;;;15.69;100.00
12468;BME280;57850;52.922;6.256;2022-11-15T13:08:43;100727.41;;;15.70;100.00
12468;BME280;57850;52.922;6.256;2022-11-15T13:11:48;100746.00;;;16.25;100.00